Terminal Aerodrome Forecast
Issued by NWS

Current Version | Previous Version | Text Only | Print | Product List | Glossary On
Versions: 1 2 3 4 5 6 7 8 9 10 11 12 13 14 15 16
000
FTUS43 KGRB 102338
TAFMTW
TAF
KMTW 102338Z 1100/1124 25003KT P6SM BKN100
     FM110600 VRB03KT P6SM -SN OVC035
     FM110800 10004KT 3SM -SN OVC020
     FM111200 13008KT 1SM -SN OVC012
      TEMPO 1115/1119 3/4SM -SN OVC008
     FM111900 16008KT 1 1/2SM -SN BR OVC012=

USA.gov is the U.S. government's official web portal to all federal, state and local government web resources and services.